sensor_id;sensor_type;location;lat;lon;timestamp;P1;durP1;ratioP1;P2;durP2;ratioP2
24857;SDS011;12935;50.782;6.074;2022-10-31T00:00:15;131.57;;;91.87;;
24857;SDS011;12935;50.782;6.074;2022-10-31T00:02:40;124.83;;;88.80;;
24857;SDS011;12935;50.782;6.074;2022-10-31T00:05:06;125.40;;;89.20;;
24857;SDS011;12935;50.782;6.074;2022-10-31T00:07:31;116.57;;;86.03;;
24857;SDS011;12935;50.782;6.074;2022-10-31T00:09:57;120.53;;;87.73;;
24857;SDS011;12935;50.782;6.074;2022-10-31T00:12:22;140.73;;;95.00;;
24857;SDS011;12935;50.782;6.074;2022-10-31T00:14:47;142.20;;;93.10;;
24857;SDS011;12935;50.782;6.074;2022-10-31T00:17:12;106.70;;;85.83;;
24857;SDS011;12935;50.782;6.074;2022-10-31T00:19:38;120.67;;;88.50;;
24857;SDS011;12935;50.782;6.074;2022-10-31T00:22:03;127.47;;;91.47;;
24857;SDS011;12935;50.782;6.074;2022-10-31T00:24:28;109.27;;;84.20;;
24857;SDS011;12935;50.782;6.074;2022-10-31T00:26:53;111.87;;;86.27;;
24857;SDS011;12935;50.782;6.074;2022-10-31T00:29:19;108.73;;;82.50;;
24857;SDS011;12935;50.782;6.074;2022-10-31T00:31:44;123.17;;;86.13;;
24857;SDS011;12935;50.782;6.074;2022-10-31T00:34:09;111.97;;;85.07;;
24857;SDS011;12935;50.782;6.074;2022-10-31T00:36:34;112.77;;;84.57;;
24857;SDS011;12935;50.782;6.074;2022-10-31T00:39:00;124.60;;;88.90;;
24857;SDS011;12935;50.782;6.074;2022-10-31T00:41:26;126.73;;;88.10;;
24857;SDS011;12935;50.782;6.074;2022-10-31T00:43:51;105.23;;;81.50;;
24857;SDS011;12935;50.782;6.074;2022-10-31T00:46:16;107.37;;;81.27;;
24857;SDS011;12935;50.782;6.074;2022-10-31T00:48:42;124.00;;;88.53;;
24857;SDS011;12935;50.782;6.074;2022-10-31T00:51:07;104.83;;;82.60;;
24857;SDS011;12935;50.782;6.074;2022-10-31T00:53:32;102.80;;;80.97;;
24857;SDS011;12935;50.782;6.074;2022-10-31T00:55:58;115.20;;;83.40;;
24857;SDS011;12935;50.782;6.074;2022-10-31T00:58:23;116.37;;;87.37;;
24857;SDS011;12935;50.782;6.074;2022-10-31T01:00:48;103.17;;;81.77;;
24857;SDS011;12935;50.782;6.074;2022-10-31T01:03:20;126.67;;;88.43;;
24857;SDS011;12935;50.782;6.074;2022-10-31T01:05:55;127.33;;;88.03;;
24857;SDS011;12935;50.782;6.074;2022-10-31T01:08:21;106.27;;;84.27;;
24857;SDS011;12935;50.782;6.074;2022-10-31T01:10:57;117.80;;;86.77;;
24857;SDS011;12935;50.782;6.074;2022-10-31T01:13:27;99.17;;;82.17;;
24857;SDS011;12935;50.782;6.074;2022-10-31T01:15:56;115.83;;;85.70;;
24857;SDS011;12935;50.782;6.074;2022-10-31T01:18:23;106.40;;;83.20;;
24857;SDS011;12935;50.782;6.074;2022-10-31T01:21:02;104.70;;;84.83;;
24857;SDS011;12935;50.782;6.074;2022-10-31T01:23:32;104.93;;;83.33;;
24857;SDS011;12935;50.782;6.074;2022-10-31T01:26:02;111.57;;;83.10;;
24857;SDS011;12935;50.782;6.074;2022-10-31T01:28:30;121.63;;;86.33;;
24857;SDS011;12935;50.782;6.074;2022-10-31T01:30:55;119.27;;;87.40;;
24857;SDS011;12935;50.782;6.074;2022-10-31T01:33:25;112.50;;;86.00;;
24857;SDS011;12935;50.782;6.074;2022-10-31T01:35:50;110.17;;;83.07;;
24857;SDS011;12935;50.782;6.074;2022-10-31T01:38:16;111.17;;;84.43;;
24857;SDS011;12935;50.782;6.074;2022-10-31T01:40:41;133.13;;;91.57;;
24857;SDS011;12935;50.782;6.074;2022-10-31T01:43:09;127.40;;;88.73;;
24857;SDS011;12935;50.782;6.074;2022-10-31T01:45:37;141.50;;;92.77;;
24857;SDS011;12935;50.782;6.074;2022-10-31T01:48:03;111.43;;;86.83;;
24857;SDS011;12935;50.782;6.074;2022-10-31T01:50:30;118.47;;;88.20;;
24857;SDS011;12935;50.782;6.074;2022-10-31T01:53:00;102.63;;;82.87;;
24857;SDS011;12935;50.782;6.074;2022-10-31T01:55:28;111.03;;;88.63;;
24857;SDS011;12935;50.782;6.074;2022-10-31T01:57:58;100.13;;;81.50;;
24857;SDS011;12935;50.782;6.074;2022-10-31T02:00:27;109.73;;;83.67;;
24857;SDS011;12935;50.782;6.074;2022-10-31T02:02:53;119.60;;;86.97;;
24857;SDS011;12935;50.782;6.074;2022-10-31T02:05:21;120.27;;;87.53;;
24857;SDS011;12935;50.782;6.074;2022-10-31T02:07:53;131.07;;;90.80;;
24857;SDS011;12935;50.782;6.074;2022-10-31T02:10:35;100.00;;;82.67;;
24857;SDS011;12935;50.782;6.074;2022-10-31T02:13:02;122.17;;;87.43;;
24857;SDS011;12935;50.782;6.074;2022-10-31T02:15:29;119.07;;;89.40;;
24857;SDS011;12935;50.782;6.074;2022-10-31T02:17:56;119.63;;;87.67;;
24857;SDS011;12935;50.782;6.074;2022-10-31T02:20:23;115.70;;;85.57;;
24857;SDS011;12935;50.782;6.074;2022-10-31T02:42:03;118.03;;;88.60;;
24857;SDS011;12935;50.782;6.074;2022-10-31T02:44:44;111.53;;;89.13;;
24857;SDS011;12935;50.782;6.074;2022-10-31T02:47:15;107.70;;;85.50;;
24857;SDS011;12935;50.782;6.074;2022-10-31T02:49:45;124.90;;;88.03;;
24857;SDS011;12935;50.782;6.074;2022-10-31T02:52:23;142.23;;;92.50;;
24857;SDS011;12935;50.782;6.074;2022-10-31T02:54:50;106.47;;;80.80;;
24857;SDS011;12935;50.782;6.074;2022-10-31T02:57:16;120.23;;;86.03;;
24857;SDS011;12935;50.782;6.074;2022-10-31T02:59:49;114.27;;;84.90;;
24857;SDS011;12935;50.782;6.074;2022-10-31T03:10:58;123.53;;;87.20;;
24857;SDS011;12935;50.782;6.074;2022-10-31T03:13:34;128.07;;;85.93;;
24857;SDS011;12935;50.782;6.074;2022-10-31T03:21:44;116.37;;;83.10;;
24857;SDS011;12935;50.782;6.074;2022-10-31T03:24:12;106.93;;;82.10;;
24857;SDS011;12935;50.782;6.074;2022-10-31T03:26:44;117.07;;;83.73;;
24857;SDS011;12935;50.782;6.074;2022-10-31T03:29:15;107.20;;;81.13;;
24857;SDS011;12935;50.782;6.074;2022-10-31T03:34:18;99.40;;;79.83;;
24857;SDS011;12935;50.782;6.074;2022-10-31T03:36:44;105.70;;;84.13;;
24857;SDS011;12935;50.782;6.074;2022-10-31T03:39:14;123.17;;;82.40;;
24857;SDS011;12935;50.782;6.074;2022-10-31T03:41:44;98.17;;;77.83;;
24857;SDS011;12935;50.782;6.074;2022-10-31T03:44:14;134.03;;;85.87;;
24857;SDS011;12935;50.782;6.074;2022-10-31T03:46:44;116.80;;;81.60;;
24857;SDS011;12935;50.782;6.074;2022-10-31T03:49:10;115.37;;;84.10;;
24857;SDS011;12935;50.782;6.074;2022-10-31T03:54:08;109.20;;;84.03;;
24857;SDS011;12935;50.782;6.074;2022-10-31T03:56:46;112.00;;;82.43;;
24857;SDS011;12935;50.782;6.074;2022-10-31T03:59:18;102.10;;;80.77;;
24857;SDS011;12935;50.782;6.074;2022-10-31T04:01:49;114.60;;;82.37;;
24857;SDS011;12935;50.782;6.074;2022-10-31T04:04:18;121.20;;;84.07;;
24857;SDS011;12935;50.782;6.074;2022-10-31T04:06:44;116.53;;;84.03;;
24857;SDS011;12935;50.782;6.074;2022-10-31T04:09:11;124.23;;;84.57;;
24857;SDS011;12935;50.782;6.074;2022-10-31T04:11:40;103.17;;;79.30;;
24857;SDS011;12935;50.782;6.074;2022-10-31T04:14:14;98.80;;;80.40;;
24857;SDS011;12935;50.782;6.074;2022-10-31T04:16:43;113.53;;;81.90;;
24857;SDS011;12935;50.782;6.074;2022-10-31T04:19:12;87.70;;;76.00;;
24857;SDS011;12935;50.782;6.074;2022-10-31T04:21:37;98.40;;;78.70;;
24857;SDS011;12935;50.782;6.074;2022-10-31T04:24:03;134.07;;;90.27;;
24857;SDS011;12935;50.782;6.074;2022-10-31T04:26:28;98.27;;;79.33;;
24857;SDS011;12935;50.782;6.074;2022-10-31T04:28:53;107.90;;;80.80;;
24857;SDS011;12935;50.782;6.074;2022-10-31T04:31:19;120.83;;;84.30;;
24857;SDS011;12935;50.782;6.074;2022-10-31T04:33:44;105.10;;;81.03;;
24857;SDS011;12935;50.782;6.074;2022-10-31T04:36:10;103.10;;;80.53;;
24857;SDS011;12935;50.782;6.074;2022-10-31T04:38:35;113.13;;;82.87;;
24857;SDS011;12935;50.782;6.074;2022-10-31T04:41:00;125.40;;;85.30;;
24857;SDS011;12935;50.782;6.074;2022-10-31T04:43:26;117.07;;;84.37;;
24857;SDS011;12935;50.782;6.074;2022-10-31T04:45:51;103.20;;;80.97;;
24857;SDS011;12935;50.782;6.074;2022-10-31T04:48:16;111.67;;;83.07;;
24857;SDS011;12935;50.782;6.074;2022-10-31T04:50:42;107.17;;;81.93;;
24857;SDS011;12935;50.782;6.074;2022-10-31T04:53:07;127.17;;;89.00;;
24857;SDS011;12935;50.782;6.074;2022-10-31T04:55:33;103.43;;;82.97;;
24857;SDS011;12935;50.782;6.074;2022-10-31T04:58:00;130.50;;;84.47;;
24857;SDS011;12935;50.782;6.074;2022-10-31T05:00:25;116.87;;;85.47;;
24857;SDS011;12935;50.782;6.074;2022-10-31T05:02:54;131.07;;;87.10;;
24857;SDS011;12935;50.782;6.074;2022-10-31T05:05:21;110.07;;;81.33;;
24857;SDS011;12935;50.782;6.074;2022-10-31T05:07:48;108.70;;;83.40;;
24857;SDS011;12935;50.782;6.074;2022-10-31T05:10:15;96.80;;;79.53;;
24857;SDS011;12935;50.782;6.074;2022-10-31T05:12:46;115.90;;;85.87;;
24857;SDS011;12935;50.782;6.074;2022-10-31T05:15:13;114.03;;;86.00;;
24857;SDS011;12935;50.782;6.074;2022-10-31T05:17:38;107.27;;;82.27;;
24857;SDS011;12935;50.782;6.074;2022-10-31T05:20:04;115.87;;;83.93;;
24857;SDS011;12935;50.782;6.074;2022-10-31T05:22:29;111.50;;;88.73;;
24857;SDS011;12935;50.782;6.074;2022-10-31T05:24:55;127.20;;;85.37;;
24857;SDS011;12935;50.782;6.074;2022-10-31T05:27:20;108.63;;;83.33;;
24857;SDS011;12935;50.782;6.074;2022-10-31T05:29:46;94.00;;;78.73;;
24857;SDS011;12935;50.782;6.074;2022-10-31T05:32:11;129.93;;;87.00;;
24857;SDS011;12935;50.782;6.074;2022-10-31T05:34:36;114.03;;;84.73;;
24857;SDS011;12935;50.782;6.074;2022-10-31T05:37:01;106.33;;;80.67;;
24857;SDS011;12935;50.782;6.074;2022-10-31T05:39:27;130.77;;;87.87;;
24857;SDS011;12935;50.782;6.074;2022-10-31T05:41:52;104.97;;;79.63;;
24857;SDS011;12935;50.782;6.074;2022-10-31T05:44:17;114.87;;;84.20;;
24857;SDS011;12935;50.782;6.074;2022-10-31T05:46:43;112.30;;;85.77;;
24857;SDS011;12935;50.782;6.074;2022-10-31T05:49:08;127.50;;;85.53;;
24857;SDS011;12935;50.782;6.074;2022-10-31T05:51:33;99.40;;;80.17;;
24857;SDS011;12935;50.782;6.074;2022-10-31T05:53:58;109.13;;;81.97;;
24857;SDS011;12935;50.782;6.074;2022-10-31T05:56:24;107.17;;;82.60;;
24857;SDS011;12935;50.782;6.074;2022-10-31T05:58:49;99.40;;;80.97;;
24857;SDS011;12935;50.782;6.074;2022-10-31T06:01:14;106.07;;;83.57;;
24857;SDS011;12935;50.782;6.074;2022-10-31T06:03:39;113.10;;;83.63;;
24857;SDS011;12935;50.782;6.074;2022-10-31T06:06:05;147.40;;;89.90;;
24857;SDS011;12935;50.782;6.074;2022-10-31T06:08:30;103.67;;;80.03;;
24857;SDS011;12935;50.782;6.074;2022-10-31T06:10:55;109.83;;;83.60;;
24857;SDS011;12935;50.782;6.074;2022-10-31T06:13:21;114.13;;;84.70;;
24857;SDS011;12935;50.782;6.074;2022-10-31T06:15:46;115.73;;;86.83;;
24857;SDS011;12935;50.782;6.074;2022-10-31T06:18:11;108.83;;;83.67;;
24857;SDS011;12935;50.782;6.074;2022-10-31T06:20:37;128.33;;;84.30;;
24857;SDS011;12935;50.782;6.074;2022-10-31T06:23:02;133.03;;;87.83;;
24857;SDS011;12935;50.782;6.074;2022-10-31T06:25:28;104.47;;;83.10;;
24857;SDS011;12935;50.782;6.074;2022-10-31T06:27:53;109.47;;;85.47;;
24857;SDS011;12935;50.782;6.074;2022-10-31T06:30:19;115.60;;;83.43;;
24857;SDS011;12935;50.782;6.074;2022-10-31T06:32:45;121.60;;;87.43;;
24857;SDS011;12935;50.782;6.074;2022-10-31T06:35:10;132.00;;;88.47;;
24857;SDS011;12935;50.782;6.074;2022-10-31T06:37:35;108.63;;;81.90;;
24857;SDS011;12935;50.782;6.074;2022-10-31T06:40:01;135.90;;;89.20;;
24857;SDS011;12935;50.782;6.074;2022-10-31T06:42:26;147.13;;;92.83;;
24857;SDS011;12935;50.782;6.074;2022-10-31T06:44:51;114.27;;;83.27;;
24857;SDS011;12935;50.782;6.074;2022-10-31T06:47:16;104.07;;;80.93;;
24857;SDS011;12935;50.782;6.074;2022-10-31T06:49:42;111.60;;;83.43;;
24857;SDS011;12935;50.782;6.074;2022-10-31T06:52:07;131.50;;;87.03;;
24857;SDS011;12935;50.782;6.074;2022-10-31T06:54:32;119.87;;;83.37;;
24857;SDS011;12935;50.782;6.074;2022-10-31T06:56:57;138.30;;;90.80;;
24857;SDS011;12935;50.782;6.074;2022-10-31T06:59:23;117.33;;;86.23;;
24857;SDS011;12935;50.782;6.074;2022-10-31T07:01:49;121.50;;;83.17;;
24857;SDS011;12935;50.782;6.074;2022-10-31T07:04:14;109.53;;;82.03;;
24857;SDS011;12935;50.782;6.074;2022-10-31T07:06:40;132.07;;;87.97;;
24857;SDS011;12935;50.782;6.074;2022-10-31T07:09:05;133.23;;;89.27;;
24857;SDS011;12935;50.782;6.074;2022-10-31T07:11:30;112.60;;;84.90;;
24857;SDS011;12935;50.782;6.074;2022-10-31T07:13:56;148.43;;;91.27;;
24857;SDS011;12935;50.782;6.074;2022-10-31T07:16:21;135.27;;;89.90;;
24857;SDS011;12935;50.782;6.074;2022-10-31T07:18:46;97.63;;;77.83;;
24857;SDS011;12935;50.782;6.074;2022-10-31T07:21:12;109.90;;;81.93;;
24857;SDS011;12935;50.782;6.074;2022-10-31T07:23:37;111.20;;;82.33;;
24857;SDS011;12935;50.782;6.074;2022-10-31T07:26:02;104.70;;;81.80;;
24857;SDS011;12935;50.782;6.074;2022-10-31T07:28:27;113.70;;;84.23;;
24857;SDS011;12935;50.782;6.074;2022-10-31T07:30:54;142.50;;;88.90;;
24857;SDS011;12935;50.782;6.074;2022-10-31T07:33:21;110.87;;;83.30;;
24857;SDS011;12935;50.782;6.074;2022-10-31T07:35:47;104.80;;;81.90;;
24857;SDS011;12935;50.782;6.074;2022-10-31T07:38:12;107.87;;;83.57;;
24857;SDS011;12935;50.782;6.074;2022-10-31T07:40:39;125.63;;;87.27;;
24857;SDS011;12935;50.782;6.074;2022-10-31T07:43:06;107.30;;;80.87;;
24857;SDS011;12935;50.782;6.074;2022-10-31T07:45:31;120.50;;;87.50;;
24857;SDS011;12935;50.782;6.074;2022-10-31T07:47:56;136.30;;;88.73;;
24857;SDS011;12935;50.782;6.074;2022-10-31T07:50:22;124.07;;;84.80;;
24857;SDS011;12935;50.782;6.074;2022-10-31T07:53:03;105.63;;;83.17;;
24857;SDS011;12935;50.782;6.074;2022-10-31T07:55:30;113.77;;;83.30;;
24857;SDS011;12935;50.782;6.074;2022-10-31T07:57:59;126.43;;;87.13;;
24857;SDS011;12935;50.782;6.074;2022-10-31T08:00:26;133.07;;;88.50;;
24857;SDS011;12935;50.782;6.074;2022-10-31T08:05:23;93.00;;;77.53;;
24857;SDS011;12935;50.782;6.074;2022-10-31T08:07:49;116.23;;;84.00;;
24857;SDS011;12935;50.782;6.074;2022-10-31T08:10:14;106.30;;;82.20;;
24857;SDS011;12935;50.782;6.074;2022-10-31T08:12:39;100.93;;;79.17;;
24857;SDS011;12935;50.782;6.074;2022-10-31T08:15:04;108.67;;;82.73;;
24857;SDS011;12935;50.782;6.074;2022-10-31T08:17:30;106.90;;;83.00;;
24857;SDS011;12935;50.782;6.074;2022-10-31T08:20:00;104.67;;;80.97;;
24857;SDS011;12935;50.782;6.074;2022-10-31T08:22:25;125.50;;;87.97;;
24857;SDS011;12935;50.782;6.074;2022-10-31T08:24:51;101.73;;;80.93;;
24857;SDS011;12935;50.782;6.074;2022-10-31T08:27:16;105.70;;;83.00;;
24857;SDS011;12935;50.782;6.074;2022-10-31T08:29:41;114.17;;;82.63;;
24857;SDS011;12935;50.782;6.074;2022-10-31T08:32:06;111.70;;;82.27;;
24857;SDS011;12935;50.782;6.074;2022-10-31T08:34:31;111.23;;;81.13;;
24857;SDS011;12935;50.782;6.074;2022-10-31T08:36:57;112.10;;;82.47;;
24857;SDS011;12935;50.782;6.074;2022-10-31T08:39:23;96.23;;;80.00;;
24857;SDS011;12935;50.782;6.074;2022-10-31T08:41:48;106.77;;;79.50;;
24857;SDS011;12935;50.782;6.074;2022-10-31T08:44:13;120.50;;;83.83;;
24857;SDS011;12935;50.782;6.074;2022-10-31T08:46:40;106.37;;;79.43;;
24857;SDS011;12935;50.782;6.074;2022-10-31T08:49:05;137.37;;;88.90;;
24857;SDS011;12935;50.782;6.074;2022-10-31T08:51:31;101.57;;;81.00;;
24857;SDS011;12935;50.782;6.074;2022-10-31T08:53:56;86.13;;;75.13;;
24857;SDS011;12935;50.782;6.074;2022-10-31T08:56:21;104.07;;;80.40;;
24857;SDS011;12935;50.782;6.074;2022-10-31T08:58:47;107.67;;;83.70;;
24857;SDS011;12935;50.782;6.074;2022-10-31T09:01:12;117.90;;;80.47;;
24857;SDS011;12935;50.782;6.074;2022-10-31T09:03:37;124.00;;;83.43;;
24857;SDS011;12935;50.782;6.074;2022-10-31T09:06:03;107.97;;;85.93;;
24857;SDS011;12935;50.782;6.074;2022-10-31T09:08:30;123.67;;;84.50;;
24857;SDS011;12935;50.782;6.074;2022-10-31T09:10:57;123.80;;;85.47;;
24857;SDS011;12935;50.782;6.074;2022-10-31T09:13:22;110.23;;;77.47;;
24857;SDS011;12935;50.782;6.074;2022-10-31T09:15:48;125.70;;;83.67;;
24857;SDS011;12935;50.782;6.074;2022-10-31T09:18:16;138.40;;;88.40;;
24857;SDS011;12935;50.782;6.074;2022-10-31T09:20:43;140.13;;;87.40;;
24857;SDS011;12935;50.782;6.074;2022-10-31T09:23:10;127.27;;;92.40;;
24857;SDS011;12935;50.782;6.074;2022-10-31T09:25:36;122.47;;;89.10;;
24857;SDS011;12935;50.782;6.074;2022-10-31T09:28:02;121.50;;;87.90;;
24857;SDS011;12935;50.782;6.074;2022-10-31T09:30:30;101.00;;;79.83;;
24857;SDS011;12935;50.782;6.074;2022-10-31T09:33:01;110.00;;;83.03;;
24857;SDS011;12935;50.782;6.074;2022-10-31T09:35:28;131.27;;;87.37;;
24857;SDS011;12935;50.782;6.074;2022-10-31T09:37:57;111.73;;;82.53;;
24857;SDS011;12935;50.782;6.074;2022-10-31T09:40:26;117.10;;;81.80;;
24857;SDS011;12935;50.782;6.074;2022-10-31T09:50:59;101.43;;;81.83;;
24857;SDS011;12935;50.782;6.074;2022-10-31T09:56:06;122.10;;;86.23;;
24857;SDS011;12935;50.782;6.074;2022-10-31T09:58:36;102.43;;;81.93;;
24857;SDS011;12935;50.782;6.074;2022-10-31T10:01:09;112.03;;;80.27;;
24857;SDS011;12935;50.782;6.074;2022-10-31T10:03:45;149.70;;;87.63;;
24857;SDS011;12935;50.782;6.074;2022-10-31T10:06:21;114.70;;;85.93;;
24857;SDS011;12935;50.782;6.074;2022-10-31T10:08:49;129.70;;;88.87;;
24857;SDS011;12935;50.782;6.074;2022-10-31T10:11:20;101.70;;;76.50;;
24857;SDS011;12935;50.782;6.074;2022-10-31T10:16:38;99.47;;;75.90;;
24857;SDS011;12935;50.782;6.074;2022-10-31T10:30:13;104.17;;;77.33;;
24857;SDS011;12935;50.782;6.074;2022-10-31T10:32:43;112.73;;;78.90;;
24857;SDS011;12935;50.782;6.074;2022-10-31T10:35:23;97.33;;;81.40;;
24857;SDS011;12935;50.782;6.074;2022-10-31T10:37:54;143.83;;;84.67;;
24857;SDS011;12935;50.782;6.074;2022-10-31T10:40:25;112.43;;;83.33;;
24857;SDS011;12935;50.782;6.074;2022-10-31T10:45:41;96.63;;;78.50;;
24857;SDS011;12935;50.782;6.074;2022-10-31T10:48:43;98.97;;;75.83;;
24857;SDS011;12935;50.782;6.074;2022-10-31T10:52:05;109.67;;;79.93;;
24857;SDS011;12935;50.782;6.074;2022-10-31T10:56:56;98.20;;;77.60;;
24857;SDS011;12935;50.782;6.074;2022-10-31T10:59:24;88.63;;;74.90;;
24857;SDS011;12935;50.782;6.074;2022-10-31T11:01:50;98.70;;;77.53;;
24857;SDS011;12935;50.782;6.074;2022-10-31T11:04:33;94.33;;;73.90;;
24857;SDS011;12935;50.782;6.074;2022-10-31T11:07:08;125.83;;;81.97;;
24857;SDS011;12935;50.782;6.074;2022-10-31T11:09:35;102.27;;;76.80;;
24857;SDS011;12935;50.782;6.074;2022-10-31T11:12:09;104.27;;;77.83;;
24857;SDS011;12935;50.782;6.074;2022-10-31T11:14:46;87.00;;;75.83;;
24857;SDS011;12935;50.782;6.074;2022-10-31T11:17:17;113.10;;;77.80;;
24857;SDS011;12935;50.782;6.074;2022-10-31T11:20:37;80.63;;;70.40;;
24857;SDS011;12935;50.782;6.074;2022-10-31T11:22:45;103.53;;;76.33;;
24857;SDS011;12935;50.782;6.074;2022-10-31T11:25:21;102.90;;;75.87;;
24857;SDS011;12935;50.782;6.074;2022-10-31T11:28:01;79.87;;;67.20;;
24857;SDS011;12935;50.782;6.074;2022-10-31T11:30:28;86.23;;;74.60;;
24857;SDS011;12935;50.782;6.074;2022-10-31T11:32:54;84.63;;;70.23;;
24857;SDS011;12935;50.782;6.074;2022-10-31T11:35:21;95.90;;;73.60;;
24857;SDS011;12935;50.782;6.074;2022-10-31T11:37:49;93.30;;;74.40;;
24857;SDS011;12935;50.782;6.074;2022-10-31T11:40:18;88.47;;;73.63;;
24857;SDS011;12935;50.782;6.074;2022-10-31T11:42:46;94.00;;;76.10;;
24857;SDS011;12935;50.782;6.074;2022-10-31T11:45:16;93.47;;;71.67;;
24857;SDS011;12935;50.782;6.074;2022-10-31T11:47:52;113.50;;;72.37;;
24857;SDS011;12935;50.782;6.074;2022-10-31T11:50:21;98.20;;;75.43;;
24857;SDS011;12935;50.782;6.074;2022-10-31T11:53:11;88.33;;;72.20;;
24857;SDS011;12935;50.782;6.074;2022-10-31T11:55:40;111.30;;;77.10;;
24857;SDS011;12935;50.782;6.074;2022-10-31T11:58:19;90.00;;;74.00;;
24857;SDS011;12935;50.782;6.074;2022-10-31T12:00:54;92.37;;;70.77;;
24857;SDS011;12935;50.782;6.074;2022-10-31T12:06:28;83.10;;;69.80;;
24857;SDS011;12935;50.782;6.074;2022-10-31T12:08:58;83.27;;;75.10;;
24857;SDS011;12935;50.782;6.074;2022-10-31T12:11:36;79.27;;;69.87;;
24857;SDS011;12935;50.782;6.074;2022-10-31T12:14:43;75.67;;;67.30;;
24857;SDS011;12935;50.782;6.074;2022-10-31T12:17:15;93.47;;;78.83;;
24857;SDS011;12935;50.782;6.074;2022-10-31T12:30:48;88.70;;;67.93;;
24857;SDS011;12935;50.782;6.074;2022-10-31T12:39:06;94.33;;;84.00;;
24857;SDS011;12935;50.782;6.074;2022-10-31T12:55:10;82.57;;;70.80;;
24857;SDS011;12935;50.782;6.074;2022-10-31T12:57:46;79.73;;;68.20;;
24857;SDS011;12935;50.782;6.074;2022-10-31T13:00:16;90.20;;;72.60;;
24857;SDS011;12935;50.782;6.074;2022-10-31T13:02:54;87.47;;;69.10;;
24857;SDS011;12935;50.782;6.074;2022-10-31T13:05:33;79.17;;;70.33;;
24857;SDS011;12935;50.782;6.074;2022-10-31T13:10:37;79.00;;;70.50;;
24857;SDS011;12935;50.782;6.074;2022-10-31T13:13:10;101.30;;;83.73;;
24857;SDS011;12935;50.782;6.074;2022-10-31T13:15:47;84.17;;;69.27;;
24857;SDS011;12935;50.782;6.074;2022-10-31T13:18:30;85.80;;;70.70;;
24857;SDS011;12935;50.782;6.074;2022-10-31T13:20:58;78.33;;;69.70;;
24857;SDS011;12935;50.782;6.074;2022-10-31T13:23:32;94.93;;;71.20;;
24857;SDS011;12935;50.782;6.074;2022-10-31T13:25:59;82.83;;;74.33;;
24857;SDS011;12935;50.782;6.074;2022-10-31T13:28:43;82.13;;;69.63;;
24857;SDS011;12935;50.782;6.074;2022-10-31T13:31:12;74.87;;;67.17;;
24857;SDS011;12935;50.782;6.074;2022-10-31T13:33:49;82.00;;;68.63;;
24857;SDS011;12935;50.782;6.074;2022-10-31T13:38:52;111.77;;;74.13;;
24857;SDS011;12935;50.782;6.074;2022-10-31T13:41:40;88.50;;;73.53;;
24857;SDS011;12935;50.782;6.074;2022-10-31T13:44:19;86.17;;;69.03;;
24857;SDS011;12935;50.782;6.074;2022-10-31T13:46:49;77.50;;;67.23;;
24857;SDS011;12935;50.782;6.074;2022-10-31T13:51:49;91.27;;;71.20;;
24857;SDS011;12935;50.782;6.074;2022-10-31T13:54:29;75.93;;;64.83;;
24857;SDS011;12935;50.782;6.074;2022-10-31T13:56:58;74.87;;;66.77;;
24857;SDS011;12935;50.782;6.074;2022-10-31T13:59:24;80.43;;;67.07;;
24857;SDS011;12935;50.782;6.074;2022-10-31T14:01:58;85.83;;;69.70;;
24857;SDS011;12935;50.782;6.074;2022-10-31T14:04:32;100.30;;;70.90;;
24857;SDS011;12935;50.782;6.074;2022-10-31T14:07:10;112.07;;;74.87;;
24857;SDS011;12935;50.782;6.074;2022-10-31T14:09:39;88.43;;;73.20;;
24857;SDS011;12935;50.782;6.074;2022-10-31T14:12:24;100.03;;;71.07;;
24857;SDS011;12935;50.782;6.074;2022-10-31T14:14:55;72.13;;;64.17;;
24857;SDS011;12935;50.782;6.074;2022-10-31T14:17:27;83.03;;;69.73;;
24857;SDS011;12935;50.782;6.074;2022-10-31T14:22:35;80.73;;;67.00;;
24857;SDS011;12935;50.782;6.074;2022-10-31T14:25:24;125.63;;;73.80;;
24857;SDS011;12935;50.782;6.074;2022-10-31T14:27:52;70.93;;;63.07;;
24857;SDS011;12935;50.782;6.074;2022-10-31T14:30:19;92.47;;;67.53;;
24857;SDS011;12935;50.782;6.074;2022-10-31T14:32:51;84.93;;;68.10;;
24857;SDS011;12935;50.782;6.074;2022-10-31T14:35:21;106.33;;;74.87;;
24857;SDS011;12935;50.782;6.074;2022-10-31T14:43:02;84.17;;;66.27;;
24857;SDS011;12935;50.782;6.074;2022-10-31T14:45:49;92.90;;;71.57;;
24857;SDS011;12935;50.782;6.074;2022-10-31T14:50:43;81.27;;;68.27;;
24857;SDS011;12935;50.782;6.074;2022-10-31T14:53:12;80.20;;;66.23;;
24857;SDS011;12935;50.782;6.074;2022-10-31T14:55:44;78.60;;;65.83;;
24857;SDS011;12935;50.782;6.074;2022-10-31T14:58:15;116.70;;;76.10;;
24857;SDS011;12935;50.782;6.074;2022-10-31T15:00:45;94.57;;;69.77;;
24857;SDS011;12935;50.782;6.074;2022-10-31T15:03:32;120.33;;;80.70;;
24857;SDS011;12935;50.782;6.074;2022-10-31T15:06:03;95.57;;;67.67;;
24857;SDS011;12935;50.782;6.074;2022-10-31T15:08:37;86.07;;;69.70;;
24857;SDS011;12935;50.782;6.074;2022-10-31T15:13:45;77.00;;;68.63;;
24857;SDS011;12935;50.782;6.074;2022-10-31T15:16:15;91.73;;;69.20;;
24857;SDS011;12935;50.782;6.074;2022-10-31T15:18:57;94.47;;;70.70;;
24857;SDS011;12935;50.782;6.074;2022-10-31T15:21:25;99.30;;;68.93;;
24857;SDS011;12935;50.782;6.074;2022-10-31T15:23:53;90.87;;;70.73;;
24857;SDS011;12935;50.782;6.074;2022-10-31T15:26:22;110.57;;;74.10;;
24857;SDS011;12935;50.782;6.074;2022-10-31T15:29:01;105.90;;;74.13;;
24857;SDS011;12935;50.782;6.074;2022-10-31T15:31:29;115.17;;;75.77;;
24857;SDS011;12935;50.782;6.074;2022-10-31T15:33:55;111.77;;;78.40;;
24857;SDS011;12935;50.782;6.074;2022-10-31T15:36:25;106.60;;;75.40;;
24857;SDS011;12935;50.782;6.074;2022-10-31T15:38:52;108.23;;;76.00;;
24857;SDS011;12935;50.782;6.074;2022-10-31T15:41:26;93.87;;;72.13;;
24857;SDS011;12935;50.782;6.074;2022-10-31T15:43:52;102.90;;;76.27;;
24857;SDS011;12935;50.782;6.074;2022-10-31T15:46:19;100.47;;;72.97;;
24857;SDS011;12935;50.782;6.074;2022-10-31T15:48:45;101.90;;;75.47;;
24857;SDS011;12935;50.782;6.074;2022-10-31T15:51:12;85.87;;;70.33;;
24857;SDS011;12935;50.782;6.074;2022-10-31T15:56:19;95.90;;;73.30;;
24857;SDS011;12935;50.782;6.074;2022-10-31T15:58:47;126.63;;;81.20;;
24857;SDS011;12935;50.782;6.074;2022-10-31T16:01:26;89.83;;;71.93;;
24857;SDS011;12935;50.782;6.074;2022-10-31T16:04:04;94.43;;;73.73;;
24857;SDS011;12935;50.782;6.074;2022-10-31T16:06:44;101.90;;;74.50;;
24857;SDS011;12935;50.782;6.074;2022-10-31T16:09:23;132.73;;;79.50;;
24857;SDS011;12935;50.782;6.074;2022-10-31T16:11:49;113.20;;;80.00;;
24857;SDS011;12935;50.782;6.074;2022-10-31T16:14:15;90.50;;;72.53;;
24857;SDS011;12935;50.782;6.074;2022-10-31T16:16:45;88.60;;;72.33;;
24857;SDS011;12935;50.782;6.074;2022-10-31T16:19:18;110.20;;;77.90;;
24857;SDS011;12935;50.782;6.074;2022-10-31T16:21:47;100.27;;;74.63;;
24857;SDS011;12935;50.782;6.074;2022-10-31T16:26:58;91.83;;;71.97;;
24857;SDS011;12935;50.782;6.074;2022-10-31T16:29:36;103.73;;;76.80;;
24857;SDS011;12935;50.782;6.074;2022-10-31T16:32:26;101.50;;;75.93;;
24857;SDS011;12935;50.782;6.074;2022-10-31T16:37:38;95.77;;;72.87;;